Kezdőlap
METAR-TAF:

METAR-TAF

Repülőterek :

Fort Madison Municipal Airport

Fort Madison, Iowa, Amerikai Egyesült Államok

földrajzi szélesség: 40-40N, földrajzi hosszúság: 091-20W, magasság: 221 m

Jelenlegi meteorológiai megfigyelések

A jelentés 38 perccel ezelõtt készült, 18:15 UTC
Északi szél 12 kt
Hőmérséklet 12°C
Páratartalom 88%
Légköri nyomás 1015 hPa
Látótávolság: 16.1 km
Szakadozott felhőzet 1300 lábon
Szakadozott felhőzet 2300 lábon
Borult 4200 lábon
enyhe esõ

METAR: KFSW 181815Z AUTO 35012KT 10SM -RA BKN013 BKN023 OVC042 12/10 A2998 RMK AO2 LTG DSNT S AND SW PRESRR

Idő: 13:53 (18:53 UTC)


TAF: hiányzik

Meteorológiai megfigyelések és előrejelzések több, mint 4000 repülőtéren (METAR és TAF jelentéseket).

A térképen piros és sárga pontok jelzik az elérhető meteorológiai állomásokat.

Mozgassa az egeret a pont fölött, hogy megjelenjen az állomás neve.

Azután kattintson az időjárási megfigyelések és előrejelzések megtekintéséhez.

A térkép megváltoztatása: kattintson a fekete keresztel jelölt zöld gombra ráközelítéshez, a vonallal jelölt zöld gombra távolításhoz, vagy a zöld nyilakra a szomszédos térképek eléréséhez.


METAR-TAF: